createdAt,value
2022-12-19T00:02:19.742Z,28.67
2022-12-19T00:04:51.908Z,31.05
2022-12-19T00:07:23.855Z,28.10
2022-12-19T00:09:55.769Z,36.15
2022-12-19T00:12:27.802Z,30.33
2022-12-19T00:14:59.734Z,31.80
2022-12-19T00:17:33.878Z,32.65
2022-12-19T00:20:09.712Z,33.22
2022-12-19T00:22:43.207Z,37.15
2022-12-19T00:25:15.345Z,32.78
2022-12-19T00:27:47.975Z,36.53
2022-12-19T00:30:19.947Z,36.75
2022-12-19T00:32:52.394Z,36.10
2022-12-19T00:35:25.001Z,34.35
2022-12-19T00:37:57.060Z,36.15
2022-12-19T00:40:29.120Z,37.50
2022-12-19T00:43:01.211Z,36.90
2022-12-19T00:45:33.285Z,37.85
2022-12-19T00:48:05.895Z,36.63
2022-12-19T00:50:38.492Z,36.88
2022-12-19T00:53:10.542Z,40.47
2022-12-19T00:55:42.576Z,38.67
2022-12-19T00:58:14.528Z,46.60
2022-12-19T01:00:46.529Z,40.80
2022-12-19T01:03:18.538Z,43.78
2022-12-19T01:05:52.500Z,44.70
2022-12-19T01:08:24.654Z,47.20
2022-12-19T01:10:58.221Z,40.63
2022-12-19T01:13:34.205Z,48.70
2022-12-19T01:16:11.164Z,51.15
2022-12-19T01:18:43.621Z,51.78
2022-12-19T01:21:15.617Z,58.25
2022-12-19T01:23:47.552Z,48.42
2022-12-19T01:26:19.562Z,51.70
2022-12-19T01:28:51.483Z,49.97
2022-12-19T01:31:23.817Z,45.60
2022-12-19T01:33:55.885Z,54.70
2022-12-19T01:36:28.240Z,60.88
2022-12-19T01:39:00.210Z,50.47
2022-12-19T01:41:32.162Z,54.03
2022-12-19T01:44:09.054Z,55.13
2022-12-19T01:46:46.641Z,60.40
2022-12-19T01:49:35.105Z,52.83
2022-12-19T01:52:09.097Z,50.42
2022-12-19T01:54:44.456Z,51.88
2022-12-19T01:57:19.843Z,53.03
2022-12-19T01:59:57.192Z,61.92
2022-12-19T02:02:38.856Z,55.17
2022-12-19T02:05:11.183Z,61.38
2022-12-19T02:07:44.426Z,55.13
2022-12-19T02:10:16.546Z,53.85
2022-12-19T02:12:48.543Z,56.63
2022-12-19T02:15:21.286Z,51.03
2022-12-19T02:18:02.163Z,57.33
2022-12-19T02:21:18.953Z,53.97
2022-12-19T02:24:41.582Z,52.90
2022-12-19T02:27:56.765Z,55.63
2022-12-19T02:30:50.605Z,57.17
2022-12-19T02:33:39.628Z,58.97
2022-12-19T02:36:48.910Z,53.13
2022-12-19T02:42:29.189Z,51.67
2022-12-19T02:45:07.451Z,56.35
2022-12-19T02:47:40.541Z,66.20
2022-12-19T02:50:13.407Z,54.38
2022-12-19T02:52:47.803Z,60.35
2022-12-19T02:55:24.632Z,59.05
2022-12-19T02:58:51.484Z,57.38
2022-12-19T03:01:50.354Z,61.75
2022-12-19T03:05:14.166Z,60.28
2022-12-19T03:08:08.534Z,62.78
2022-12-19T03:10:48.686Z,62.65
2022-12-19T03:13:30.546Z,58.63
2022-12-19T03:16:04.627Z,63.38
2022-12-19T03:18:36.797Z,55.42
2022-12-19T03:21:16.153Z,57.58
2022-12-19T03:23:50.689Z,65.00
2022-12-19T03:26:27.173Z,62.05
2022-12-19T03:29:13.233Z,64.97
2022-12-19T03:31:46.352Z,58.30
2022-12-19T03:34:30.332Z,67.20
2022-12-19T03:37:05.772Z,58.92
2022-12-19T03:39:42.203Z,64.93
2022-12-19T03:42:35.150Z,64.18
2022-12-19T03:45:08.121Z,68.38
2022-12-19T03:47:57.318Z,59.20
2022-12-19T03:50:42.983Z,63.47
2022-12-19T03:53:48.616Z,59.83
2022-12-19T03:56:33.959Z,55.85
2022-12-19T03:59:22.687Z,58.80
2022-12-19T04:01:55.348Z,64.13
2022-12-19T04:04:28.971Z,59.47
2022-12-19T04:07:03.628Z,64.22
2022-12-19T04:09:37.232Z,54.85
2022-12-19T04:12:20.346Z,57.83
2022-12-19T04:14:52.691Z,51.53
2022-12-19T04:17:41.568Z,63.80
2022-12-19T04:20:18.409Z,53.45
2022-12-19T04:22:59.101Z,56.67
2022-12-19T04:25:36.132Z,61.78
2022-12-19T04:28:36.761Z,57.25
2022-12-19T04:31:15.678Z,53.65
2022-12-19T04:33:47.701Z,58.30
2022-12-19T04:36:19.715Z,61.28
2022-12-19T04:38:52.775Z,67.65
2022-12-19T04:41:24.829Z,59.20
2022-12-19T04:43:56.833Z,65.78
2022-12-19T04:46:28.825Z,60.55
2022-12-19T04:49:00.803Z,64.57
2022-12-19T04:51:32.767Z,64.75
2022-12-19T04:54:04.849Z,59.40
2022-12-19T04:56:36.806Z,68.90
2022-12-19T04:59:08.985Z,58.78
2022-12-19T05:01:41.040Z,66.85
2022-12-19T05:04:13.174Z,65.07
2022-12-19T05:06:45.148Z,66.43
2022-12-19T05:09:17.578Z,70.10
2022-12-19T05:11:49.606Z,66.20
2022-12-19T05:14:21.589Z,61.50
2022-12-19T05:16:58.898Z,67.30
2022-12-19T05:19:33.310Z,66.20
2022-12-19T05:22:05.435Z,67.80
2022-12-19T05:24:37.343Z,58.65
2022-12-19T05:27:09.357Z,68.03
2022-12-19T05:29:41.347Z,63.05
2022-12-19T05:32:13.350Z,65.78
2022-12-19T05:34:45.280Z,59.45
2022-12-19T05:37:17.230Z,58.58
2022-12-19T05:39:49.290Z,65.35
2022-12-19T05:42:21.301Z,67.57
2022-12-19T05:44:53.241Z,57.63
2022-12-19T05:47:25.298Z,58.97
2022-12-19T05:49:57.280Z,62.10
2022-12-19T05:52:29.265Z,58.35
2022-12-19T05:55:01.236Z,71.55
2022-12-19T05:57:33.347Z,59.20
2022-12-19T06:00:09.823Z,59.50
2022-12-19T06:02:42.163Z,60.20
2022-12-19T06:05:14.646Z,64.90
2022-12-19T06:07:46.688Z,61.78
2022-12-19T06:10:18.661Z,69.57
2022-12-19T06:12:50.658Z,63.95
2022-12-19T06:15:22.692Z,67.90
2022-12-19T06:17:55.231Z,58.13
2022-12-19T06:20:27.254Z,60.45
2022-12-19T06:23:00.161Z,60.30
2022-12-19T06:25:32.273Z,67.35
2022-12-19T06:28:04.512Z,58.80
2022-12-19T06:30:36.562Z,65.15
2022-12-19T06:33:08.559Z,65.10
2022-12-19T06:35:40.553Z,64.25
2022-12-19T06:38:12.557Z,56.45
2022-12-19T06:41:03.416Z,66.75
2022-12-19T06:43:35.409Z,68.40
2022-12-19T06:46:08.154Z,65.72
2022-12-19T06:48:40.267Z,64.20
2022-12-19T06:51:12.211Z,70.43
2022-12-19T06:53:44.306Z,65.63
2022-12-19T06:56:18.013Z,70.32
2022-12-19T06:58:50.717Z,61.65
2022-12-19T07:01:36.775Z,61.20
2022-12-19T07:04:12.087Z,77.78
2022-12-19T07:06:48.906Z,67.22
2022-12-19T07:09:22.283Z,65.57
2022-12-19T07:11:54.226Z,68.85
2022-12-19T07:14:26.229Z,62.33
2022-12-19T07:17:01.160Z,75.22
2022-12-19T07:19:34.305Z,70.82
2022-12-19T07:22:06.884Z,67.70
2022-12-19T07:24:38.997Z,72.18
2022-12-19T07:27:11.029Z,70.32
2022-12-19T07:29:43.031Z,64.45
2022-12-19T07:32:15.070Z,68.15
2022-12-19T07:34:47.104Z,73.80
2022-12-19T07:37:19.039Z,70.55
2022-12-19T07:39:52.949Z,65.57
2022-12-19T07:42:28.162Z,84.07
2022-12-19T07:45:05.011Z,66.38
2022-12-19T07:47:36.960Z,65.00
2022-12-19T07:50:09.338Z,63.53
2022-12-19T07:52:41.251Z,77.13
2022-12-19T07:55:13.697Z,70.97
2022-12-19T07:57:45.616Z,78.95
2022-12-19T08:00:18.489Z,72.25
2022-12-19T08:02:50.572Z,74.80
2022-12-19T08:05:25.639Z,76.97
2022-12-19T08:07:58.229Z,70.30
2022-12-19T08:10:31.135Z,86.13
2022-12-19T08:13:03.139Z,89.30
2022-12-19T08:15:35.601Z,84.88
2022-12-19T08:18:07.617Z,86.50
2022-12-19T08:20:39.727Z,77.88
2022-12-19T08:23:11.697Z,80.05
2022-12-19T08:25:43.665Z,85.20
2022-12-19T08:28:15.881Z,77.18
2022-12-19T08:30:48.037Z,77.15
2022-12-19T08:33:20.062Z,78.82
2022-12-19T08:35:52.097Z,77.57
2022-12-19T08:38:24.064Z,83.63
2022-12-19T08:40:56.095Z,84.60
2022-12-19T08:43:28.889Z,83.22
2022-12-19T08:46:01.053Z,75.40
2022-12-19T08:48:34.680Z,73.18
2022-12-19T08:51:08.410Z,86.68
2022-12-19T08:53:42.839Z,83.45
2022-12-19T08:56:20.690Z,81.68
2022-12-19T08:58:52.844Z,94.40
2022-12-19T09:01:26.059Z,77.57
2022-12-19T09:04:25.204Z,89.97
2022-12-19T09:06:53.283Z,91.13
2022-12-19T09:09:25.344Z,80.97
2022-12-19T09:11:57.357Z,82.60
2022-12-19T09:14:34.703Z,81.07
2022-12-19T09:17:07.212Z,88.93
2022-12-19T09:19:39.963Z,81.68
2022-12-19T09:22:15.525Z,82.22
2022-12-19T09:24:47.603Z,86.10
2022-12-19T09:27:19.685Z,77.13
2022-12-19T09:29:51.877Z,78.70
2022-12-19T09:32:23.841Z,83.25
2022-12-19T09:34:55.942Z,80.50
2022-12-19T09:37:28.002Z,84.55
2022-12-19T09:40:00.023Z,80.05
2022-12-19T09:42:57.291Z,75.43
2022-12-19T09:46:08.224Z,80.95
2022-12-19T09:48:40.476Z,89.38
2022-12-19T09:51:35.960Z,77.97
2022-12-19T09:54:20.515Z,69.30
2022-12-19T09:56:59.358Z,74.38
2022-12-19T09:59:41.477Z,66.20
2022-12-19T10:02:57.532Z,64.57
2022-12-19T10:07:09.381Z,78.13
2022-12-19T10:09:49.986Z,69.90
2022-12-19T10:12:39.119Z,71.38
2022-12-19T10:15:10.867Z,64.70
2022-12-19T10:18:02.894Z,74.82
2022-12-19T10:20:38.869Z,67.45
2022-12-19T10:23:42.747Z,60.88
2022-12-19T10:26:21.181Z,63.58
2022-12-19T10:28:56.829Z,71.88
2022-12-19T10:32:13.298Z,63.03
2022-12-19T10:34:47.926Z,61.35
2022-12-19T10:37:49.571Z,62.67
2022-12-19T10:40:30.640Z,60.78
2022-12-19T10:43:44.765Z,53.08
2022-12-19T10:46:38.223Z,53.20
2022-12-19T10:49:17.331Z,51.88
2022-12-19T10:52:08.006Z,56.63
2022-12-19T10:54:43.876Z,45.90
2022-12-19T10:57:21.936Z,51.17
2022-12-19T11:00:06.856Z,46.95
2022-12-19T11:02:38.975Z,41.55
2022-12-19T11:05:28.411Z,41.10
2022-12-19T11:08:07.730Z,37.30
2022-12-19T11:12:16.033Z,41.08
2022-12-19T11:19:13.300Z,45.20
2022-12-19T11:21:38.732Z,46.17
2022-12-19T11:29:19.337Z,37.25
2022-12-19T11:30:05.170Z,46.15
2022-12-19T11:30:43.752Z,37.22
2022-12-19T11:30:46.079Z,42.03
2022-12-19T11:34:24.876Z,45.95
2022-12-19T11:37:21.507Z,47.70
2022-12-19T11:40:40.422Z,50.65
2022-12-19T11:43:53.440Z,36.47
2022-12-19T11:46:49.995Z,50.65
2022-12-19T11:49:39.516Z,44.20
2022-12-19T11:53:03.607Z,41.00
2022-12-19T11:55:55.646Z,39.67
2022-12-19T12:01:35.888Z,39.30
2022-12-19T12:04:46.654Z,39.03
2022-12-19T12:07:41.827Z,39.88
2022-12-19T12:15:00.043Z,48.53
2022-12-19T12:22:17.625Z,49.83
2022-12-19T12:29:39.809Z,49.97
2022-12-19T12:31:22.735Z,40.60
2022-12-19T12:31:23.268Z,48.38
2022-12-19T12:31:45.832Z,42.70
2022-12-19T12:31:55.329Z,41.80
2022-12-19T12:35:16.267Z,42.15
2022-12-19T12:39:24.328Z,48.53
2022-12-19T12:42:37.009Z,42.13
2022-12-19T12:45:35.699Z,43.88
2022-12-19T12:48:31.713Z,38.05
2022-12-19T12:51:04.550Z,42.40
2022-12-19T12:53:42.230Z,44.25
2022-12-19T12:56:17.598Z,46.53
2022-12-19T12:58:51.737Z,43.42
2022-12-19T13:01:29.534Z,42.03
2022-12-19T13:04:31.986Z,46.65
2022-12-19T13:07:39.062Z,51.88
2022-12-19T13:10:13.803Z,46.97
2022-12-19T13:13:22.529Z,59.42
2022-12-19T13:15:57.737Z,42.15
2022-12-19T13:18:40.087Z,44.50
2022-12-19T13:21:12.097Z,45.15
2022-12-19T13:23:48.145Z,45.42
2022-12-19T13:26:47.531Z,46.72
2022-12-19T13:29:33.778Z,52.35
2022-12-19T13:32:15.781Z,41.33
2022-12-19T13:36:53.375Z,43.00
2022-12-19T13:39:56.640Z,48.55
2022-12-19T13:41:58.937Z,40.83
2022-12-19T13:44:39.168Z,50.42
2022-12-19T13:47:18.922Z,43.85
2022-12-19T13:49:54.879Z,49.58
2022-12-19T13:52:26.920Z,46.90
2022-12-19T13:54:59.804Z,46.88
2022-12-19T13:57:32.403Z,49.40
2022-12-19T14:00:17.374Z,54.55
2022-12-19T14:02:54.971Z,42.25
2022-12-19T14:06:17.899Z,43.97
2022-12-19T14:08:30.551Z,46.38
2022-12-19T14:11:56.774Z,49.30
2022-12-19T14:14:25.723Z,48.17
2022-12-19T14:17:33.360Z,46.50
2022-12-19T14:21:10.665Z,40.45
2022-12-19T14:23:15.599Z,38.85
2022-12-19T14:28:20.371Z,47.05
2022-12-19T14:29:00.690Z,43.40
2022-12-19T14:31:35.696Z,39.15
2022-12-19T14:34:46.949Z,41.17
2022-12-19T14:39:03.009Z,37.38
2022-12-19T14:40:33.752Z,39.72
2022-12-19T14:43:57.277Z,40.90
2022-12-19T14:52:51.910Z,37.30
2022-12-19T14:54:10.124Z,44.60
2022-12-19T14:54:29.066Z,46.05
2022-12-19T14:56:16.280Z,38.88
2022-12-19T14:58:54.462Z,39.25
2022-12-19T15:01:34.130Z,41.22
2022-12-19T15:04:48.494Z,42.90
2022-12-19T15:07:29.349Z,40.58
2022-12-19T15:11:06.145Z,37.22
2022-12-19T15:14:55.229Z,43.15
2022-12-19T15:16:44.648Z,38.78
2022-12-19T15:19:16.888Z,34.88
2022-12-19T15:21:49.072Z,36.20
2022-12-19T15:24:21.033Z,42.60
2022-12-19T15:26:53.891Z,39.97
2022-12-19T15:29:26.688Z,47.10
2022-12-19T15:31:58.716Z,34.50
2022-12-19T15:34:38.035Z,35.92
2022-12-19T15:37:15.944Z,41.28
2022-12-19T15:39:48.067Z,40.25
2022-12-19T15:42:25.172Z,42.42
2022-12-19T15:44:59.944Z,34.83
2022-12-19T15:47:37.281Z,35.97
2022-12-19T15:50:17.950Z,35.00
2022-12-19T15:52:53.303Z,36.45
2022-12-19T15:55:29.236Z,31.55
2022-12-19T15:58:05.718Z,36.90
2022-12-19T16:00:37.962Z,34.42
2022-12-19T16:03:23.721Z,36.22
2022-12-19T16:05:57.404Z,32.50
2022-12-19T16:08:29.404Z,33.05
2022-12-19T16:11:02.315Z,33.85
2022-12-19T16:13:35.525Z,34.17
2022-12-19T16:16:15.374Z,32.53
2022-12-19T16:21:33.182Z,30.25
2022-12-19T16:24:06.318Z,35.35
2022-12-19T16:26:40.533Z,33.75
2022-12-19T16:29:21.165Z,33.33
2022-12-19T16:31:54.094Z,31.10
2022-12-19T16:34:26.450Z,29.95
2022-12-19T16:36:58.554Z,32.90
2022-12-19T16:39:30.558Z,26.10
2022-12-19T16:42:05.108Z,25.92
2022-12-19T16:44:37.226Z,30.42
2022-12-19T16:47:17.867Z,40.40
2022-12-19T16:49:49.997Z,29.02
2022-12-19T16:52:22.078Z,31.15
2022-12-19T16:54:54.098Z,30.95
2022-12-19T16:57:26.191Z,31.33
2022-12-19T16:59:58.249Z,31.25
2022-12-19T17:03:01.444Z,32.22
2022-12-19T17:05:33.781Z,31.63
2022-12-19T17:08:12.916Z,30.75
2022-12-19T17:10:46.203Z,27.88
2022-12-19T17:13:18.467Z,34.80
2022-12-19T17:15:56.237Z,28.27
2022-12-19T17:18:36.250Z,32.53
2022-12-19T17:21:16.642Z,31.48
2022-12-19T17:26:23.981Z,32.17
2022-12-19T17:28:55.937Z,34.85
2022-12-19T17:31:30.160Z,36.55
2022-12-19T17:34:02.384Z,38.35
2022-12-19T17:36:37.799Z,31.65
2022-12-19T17:39:25.519Z,43.10
2022-12-19T17:42:21.693Z,30.35
2022-12-19T17:44:55.845Z,34.47
2022-12-19T17:47:30.002Z,34.40
2022-12-19T17:50:02.768Z,29.45
2022-12-19T17:52:36.248Z,31.63
2022-12-19T17:55:26.148Z,30.20
2022-12-19T17:57:59.788Z,31.48
2022-12-19T18:00:33.916Z,29.52
2022-12-19T18:03:17.685Z,37.33
2022-12-19T18:05:52.217Z,34.15
2022-12-19T18:08:30.540Z,33.95
2022-12-19T18:11:05.380Z,30.95
2022-12-19T18:13:37.509Z,34.33
2022-12-19T18:16:14.351Z,32.28
2022-12-19T18:18:47.723Z,28.80
2022-12-19T18:21:24.473Z,30.95
2022-12-19T18:23:56.899Z,28.77
2022-12-19T18:26:29.644Z,33.63
2022-12-19T18:29:01.879Z,29.23
2022-12-19T18:31:36.624Z,30.38
2022-12-19T18:34:19.518Z,41.88
2022-12-19T18:36:54.021Z,33.30
2022-12-19T18:39:29.250Z,28.33
2022-12-19T18:42:01.651Z,26.58
2022-12-19T18:44:34.558Z,30.65
2022-12-19T18:47:21.833Z,27.50
2022-12-19T18:49:53.810Z,33.42
2022-12-19T18:52:25.993Z,28.90
2022-12-19T18:54:57.985Z,36.83
2022-12-19T18:57:30.076Z,29.95
2022-12-19T19:00:02.241Z,27.00
2022-12-19T19:02:34.479Z,24.40
2022-12-19T19:05:17.067Z,25.75
2022-12-19T19:07:49.219Z,30.98
2022-12-19T19:10:25.631Z,31.38
2022-12-19T19:13:01.686Z,27.65
2022-12-19T19:15:41.578Z,25.83
2022-12-19T19:18:13.895Z,25.73
2022-12-19T19:20:46.551Z,26.60
2022-12-19T19:23:18.641Z,30.70
2022-12-19T19:25:50.656Z,29.42
2022-12-19T19:28:22.671Z,26.17
2022-12-19T19:30:55.718Z,21.58
2022-12-19T19:33:34.506Z,26.20
2022-12-19T19:36:13.412Z,31.95
2022-12-19T19:38:50.739Z,24.10
2022-12-19T19:41:29.558Z,26.73
2022-12-19T19:44:02.033Z,27.65
2022-12-19T19:46:33.995Z,42.58
2022-12-19T19:49:05.984Z,50.75
2022-12-19T19:51:38.042Z,92.82
2022-12-19T19:54:16.082Z,39.85
2022-12-19T19:56:48.905Z,23.23
2022-12-19T19:59:21.581Z,25.02
2022-12-19T20:01:54.455Z,24.80
2022-12-19T20:04:26.859Z,33.03
2022-12-19T20:06:58.983Z,22.58
2022-12-19T20:09:31.040Z,27.08
2022-12-19T20:12:04.095Z,37.95
2022-12-19T20:14:36.328Z,37.85
2022-12-19T20:17:08.486Z,33.72
2022-12-19T20:19:40.613Z,38.67
2022-12-19T20:22:12.560Z,39.47
2022-12-19T20:24:44.655Z,26.90
2022-12-19T20:27:16.715Z,34.47
2022-12-19T20:29:48.697Z,24.80
2022-12-19T20:32:20.690Z,24.33
2022-12-19T20:34:52.739Z,21.20
2022-12-19T20:37:25.417Z,21.63
2022-12-19T20:39:57.433Z,19.70
2022-12-19T20:42:29.525Z,29.17
2022-12-19T20:45:01.529Z,18.77
2022-12-19T20:47:33.582Z,20.00
2022-12-19T20:50:07.680Z,21.33
2022-12-19T20:52:39.725Z,34.78
2022-12-19T20:55:11.810Z,32.50
2022-12-19T20:57:43.857Z,29.15
2022-12-19T21:00:18.037Z,35.55
2022-12-19T21:03:26.325Z,21.45
2022-12-19T21:05:42.520Z,20.35
2022-12-19T21:08:14.626Z,19.52
2022-12-19T21:10:46.680Z,21.00
2022-12-19T21:13:19.325Z,25.98
2022-12-19T21:16:03.051Z,28.10
2022-12-19T21:18:37.828Z,26.45
2022-12-19T21:21:16.117Z,22.08
2022-12-19T21:23:48.904Z,22.27
2022-12-19T21:26:23.565Z,18.83
2022-12-19T21:28:58.158Z,22.83
2022-12-19T21:31:31.415Z,18.27
2022-12-19T21:34:03.836Z,17.35
2022-12-19T21:36:37.076Z,19.30
2022-12-19T21:39:09.202Z,19.20
2022-12-19T21:41:41.290Z,16.75
2022-12-19T21:44:13.432Z,21.88
2022-12-19T21:46:47.721Z,19.13
2022-12-19T21:49:20.184Z,18.38
2022-12-19T21:51:52.343Z,19.80
2022-12-19T21:54:24.339Z,25.98
2022-12-19T21:56:56.424Z,19.13
2022-12-19T21:59:28.941Z,25.55
2022-12-19T22:02:01.121Z,20.73
2022-12-19T22:04:33.304Z,22.33
2022-12-19T22:07:07.424Z,26.23
2022-12-19T22:09:39.493Z,22.95
2022-12-19T22:12:13.230Z,22.60
2022-12-19T22:14:45.656Z,18.63
2022-12-19T22:17:17.688Z,28.42
2022-12-19T22:19:49.645Z,20.58
2022-12-19T22:22:21.624Z,18.15
2022-12-19T22:24:53.667Z,18.90
2022-12-19T22:27:25.748Z,20.50
2022-12-19T22:29:58.003Z,19.83
2022-12-19T22:32:30.300Z,16.88
2022-12-19T22:35:02.495Z,22.73
2022-12-19T22:37:34.714Z,19.45
2022-12-19T22:40:08.191Z,21.83
2022-12-19T22:42:40.165Z,20.00
2022-12-19T22:45:12.340Z,26.27
2022-12-19T22:47:44.703Z,16.52
2022-12-19T22:50:16.718Z,19.92
2022-12-19T22:52:48.815Z,17.73
2022-12-19T22:55:20.755Z,19.50
2022-12-19T22:57:52.709Z,16.95
2022-12-19T23:00:24.746Z,15.68
2022-12-19T23:02:56.891Z,17.42
2022-12-19T23:05:29.108Z,14.40
2022-12-19T23:08:01.128Z,16.92
2022-12-19T23:10:33.317Z,14.30
2022-12-19T23:13:05.340Z,17.50
2022-12-19T23:15:37.383Z,19.63
2022-12-19T23:18:09.447Z,18.88
2022-12-19T23:20:41.602Z,13.90
2022-12-19T23:23:13.591Z,13.45
2022-12-19T23:25:45.671Z,14.63
2022-12-19T23:28:17.640Z,23.95
2022-12-19T23:30:49.759Z,15.15
2022-12-19T23:33:21.815Z,20.95
2022-12-19T23:35:53.845Z,22.55
2022-12-19T23:38:26.457Z,19.98
2022-12-19T23:41:02.175Z,18.90
2022-12-19T23:43:36.673Z,16.25
2022-12-19T23:46:22.133Z,19.85
2022-12-19T23:48:55.317Z,24.83
2022-12-19T23:51:28.884Z,16.75
2022-12-19T23:54:00.903Z,14.30
2022-12-19T23:56:33.391Z,18.20
2022-12-19T23:59:05.753Z,13.77
